EDT,Max TemperatureF,Mean TemperatureF,Min TemperatureF,Max Dew PointF,MeanDew PointF,Min DewpointF,Max Humidity, Mean Humidity, Min Humidity, Max Sea Level PressureIn, Mean Sea Level PressureIn, Min Sea Level PressureIn, Max VisibilityMiles, Mean VisibilityMiles, Min VisibilityMiles, Max Wind SpeedMPH, Mean Wind SpeedMPH, Max Gust SpeedMPH,PrecipitationIn, CloudCover, Events, WindDirDegrees
2012-10-1,63,50,36,49,40,33,93,79,46,29.97,29.92,29.88,10,7,1,9,2,,0.00,2,,236
2012-10-2,66,58,51,59,55,46,90,84,75,29.98,29.92,29.86,10,7,1,9,7,18,0.02,8,Rain,139
2012-10-3,75,66,59,62,59,55,94,81,55,30.15,30.05,29.94,10,6,0,9,5,,0.00,5,Fog,193
2012-10-4,71,62,53,57,52,45,93,79,41,30.20,30.16,30.11,10,6,0,13,2,24,0.00,3,Fog,251
2012-10-5,69,60,52,55,52,47,87,76,61,30.10,30.02,29.87,10,9,4,13,4,22,0.00,5,,251
2012-10-6,60,52,43,55,41,33,90,78,50,30.07,29.92,29.79,10,8,2,17,7,25,0.35,8,Rain,286
2012-10-7,48,40,35,36,34,32,92,79,56,30.15,30.07,30.02,10,9,4,12,3,17,0.18,7,Rain,235
2012-10-8,48,40,32,34,32,29,89,78,52,30.27,30.21,30.13,10,10,7,9,4,,0.00,5,,210
2012-10-9,59,44,30,38,33,28,89,66,41,30.22,30.13,30.01,10,10,7,12,3,18,0.00,2,,163
2012-10-10,51,45,39,42,38,34,86,80,66,30.07,29.93,29.86,10,9,2,16,8,26,0.16,8,Rain,255
2012-10-11,53,42,33,32,28,25,76,58,40,30.24,30.16,30.09,10,10,10,17,9,24,0.00,2,,254
2012-10-12,46,36,25,38,29,19,87,68,38,30.47,30.24,30.08,10,10,9,22,10,29,0.03,5,Rain,318
2012-10-13,51,35,19,38,24,16,85,63,36,30.47,30.34,30.09,10,10,10,12,4,22,0.02,1,Rain,153
2012-10-14,72,60,48,54,49,42,83,68,51,30.08,29.95,29.69,10,10,6,17,7,28,0.06,7,Rain,196
2012-10-15,66,55,43,55,44,38,87,76,53,29.83,29.72,29.60,10,9,2,16,11,26,0.20,8,Rain,261
2012-10-16,48,40,32,39,35,29,89,77,56,29.94,29.90,29.83,10,10,7,13,8,,0.02,6,Rain,300
2012-10-17,64,47,30,39,34,27,92,61,37,29.97,29.91,29.84,10,9,6,10,3,18,0.00,0,,160
2012-10-18,64,54,46,45,43,39,90,74,48,29.87,29.79,29.72,10,8,2,17,11,29,0.73,4,Rain,171
2012-10-19,64,50,36,46,37,31,93,81,30,29.83,29.76,29.62,10,4,0,9,3,18,0.01,3,Fog,148
2012-10-20,52,48,43,40,37,36,85,74,54,29.86,29.73,29.65,10,10,3,17,9,25,0.13,7,Rain,233
2012-10-21,55,46,37,42,40,33,86,77,53,30.14,30.02,29.84,10,10,6,15,8,22,0.05,6,Rain,277
2012-10-22,66,49,32,44,37,28,89,65,34,30.19,30.15,30.10,10,10,7,12,2,,0.00,1,,280
2012-10-23,66,56,50,55,52,44,94,83,62,30.09,30.06,30.01,10,6,0,8,3,,0.35,7,Fog-Rain,241
2012-10-24,69,61,54,56,54,52,93,79,56,30.13,30.10,30.07,10,9,1,9,3,18,0.00,7,,239
2012-10-25,78,63,48,52,49,46,93,70,35,30.16,30.11,30.05,10,7,0,15,4,22,0.00,0,Fog,160
2012-10-26,72,61,50,53,51,47,89,77,47,30.12,30.09,30.02,10,7,2,14,8,22,0.01,4,Rain,173
2012-10-27,60,52,44,52,45,41,93,88,69,30.09,30.00,29.91,10,4,0,14,7,,0.14,8,Fog-Rain,27
2012-10-28,43,41,39,40,38,37,93,88,82,30.01,29.95,29.83,10,5,2,14,8,23,0.10,8,Rain,23
2012-10-29,42,40,37,38,37,34,93,88,82,29.83,29.54,28.99,10,5,2,32,13,48,1.49,8,Rain,351
2012-10-30,51,44,36,45,37,32,90,82,71,29.37,29.15,28.93,10,9,2,26,16,40,0.42,8,Rain,93
2012-10-31,39,36,33,36,33,30,93,88,81,29.52,29.42,29.35,10,7,2,12,4,21,0.22,8,Rain-Snow,199